createdAt,value
2022-08-26T04:04:00.362Z,23.54
2022-08-26T04:06:30.874Z,23.55
2022-08-26T04:09:02.755Z,23.50
2022-08-26T04:11:34.539Z,23.50
2022-08-26T04:14:08.591Z,23.50
2022-08-26T04:16:36.424Z,23.46
2022-08-26T04:19:05.494Z,23.45
2022-08-26T04:21:33.456Z,23.47
2022-08-26T04:24:03.433Z,23.50
2022-08-26T04:26:36.837Z,23.44
2022-08-26T04:29:09.782Z,23.38
2022-08-26T04:31:38.476Z,23.36
2022-08-26T04:34:11.154Z,23.38
2022-08-26T04:36:38.976Z,23.35
2022-08-26T04:39:06.665Z,23.37
2022-08-26T04:41:34.883Z,23.34
2022-08-26T04:44:04.686Z,23.32
2022-08-26T04:46:32.366Z,23.29
2022-08-26T04:49:00.468Z,23.25
2022-08-26T04:51:29.489Z,23.28
2022-08-26T04:53:58.278Z,23.31
2022-08-26T04:56:27.483Z,23.25
2022-08-26T04:58:56.458Z,23.25
2022-08-26T05:01:24.709Z,23.25
2022-08-26T05:03:52.993Z,23.26
2022-08-26T05:06:20.865Z,23.28
2022-08-26T05:08:51.465Z,23.28
2022-08-26T05:11:22.080Z,23.28
2022-08-26T05:13:49.787Z,23.32
2022-08-26T05:16:18.562Z,23.35
2022-08-26T05:18:47.265Z,23.36
2022-08-26T05:21:20.127Z,23.29
2022-08-26T05:23:48.949Z,23.24
2022-08-26T05:26:22.950Z,23.31
2022-08-26T05:28:51.195Z,23.30
2022-08-26T05:31:25.535Z,23.33
2022-08-26T05:33:53.633Z,23.34
2022-08-26T05:36:23.712Z,23.35
2022-08-26T05:38:55.050Z,23.37
2022-08-26T05:41:34.152Z,23.39
2022-08-26T05:44:05.820Z,23.40
2022-08-26T05:46:35.018Z,23.38
2022-08-26T05:49:04.246Z,23.39
2022-08-26T05:51:32.487Z,23.39
2022-08-26T05:54:02.532Z,23.43
2022-08-26T05:56:33.451Z,23.46
2022-08-26T05:59:02.570Z,23.48
2022-08-26T06:01:35.705Z,23.44
2022-08-26T06:04:04.820Z,23.48
2022-08-26T06:06:34.519Z,23.50
2022-08-26T06:09:05.092Z,23.51
2022-08-26T06:11:34.224Z,23.52
2022-08-26T06:14:05.282Z,23.47
2022-08-26T06:16:34.606Z,23.37
2022-08-26T06:19:10.593Z,23.44
2022-08-26T06:21:41.617Z,23.48
2022-08-26T06:24:29.532Z,23.50
2022-08-26T06:27:01.408Z,23.52
2022-08-26T06:29:33.019Z,23.53
2022-08-26T06:32:01.854Z,23.54
2022-08-26T06:34:30.634Z,23.55
2022-08-26T06:37:01.270Z,23.53
2022-08-26T06:39:31.299Z,23.54
2022-08-26T06:42:02.945Z,23.60
2022-08-26T06:44:31.054Z,23.64
2022-08-26T06:47:00.097Z,23.66
2022-08-26T06:49:28.489Z,23.65
2022-08-26T06:51:57.987Z,23.53
2022-08-26T06:54:27.446Z,23.56
2022-08-26T06:56:56.683Z,23.56
2022-08-26T06:59:27.430Z,23.57
2022-08-26T07:01:55.898Z,23.46
2022-08-26T07:04:24.911Z,23.52
2022-08-26T07:06:56.050Z,23.52
2022-08-26T07:09:26.600Z,23.57
2022-08-26T07:11:56.109Z,23.60
2022-08-26T07:14:24.863Z,23.64
2022-08-26T07:16:54.365Z,23.65
2022-08-26T07:19:30.838Z,23.67
2022-08-26T07:22:00.341Z,23.64
2022-08-26T07:24:28.543Z,23.68
2022-08-26T07:27:00.521Z,23.68
2022-08-26T07:29:28.673Z,23.69
2022-08-26T07:31:57.960Z,23.72
2022-08-26T07:34:26.220Z,23.75
2022-08-26T07:36:55.215Z,23.80
2022-08-26T07:39:23.292Z,23.83
2022-08-26T07:41:51.558Z,23.85
2022-08-26T07:44:19.582Z,23.87
2022-08-26T07:46:53.051Z,23.87
2022-08-26T07:49:23.515Z,23.85
2022-08-26T07:51:51.776Z,23.82
2022-08-26T07:54:20.453Z,23.79
2022-08-26T07:56:54.508Z,23.70
2022-08-26T07:59:24.332Z,23.66
2022-08-26T08:01:53.043Z,23.61
2022-08-26T08:04:26.422Z,23.68
2022-08-26T08:06:54.977Z,23.84
2022-08-26T08:09:23.159Z,23.94
2022-08-26T08:11:53.538Z,24.07
2022-08-26T08:14:22.216Z,24.08
2022-08-26T08:16:51.168Z,24.08
2022-08-26T08:19:24.341Z,24.16
2022-08-26T08:22:05.137Z,24.27
2022-08-26T08:24:44.799Z,24.53
2022-08-26T08:27:12.383Z,24.69
2022-08-26T08:29:41.282Z,24.72
2022-08-26T08:32:11.472Z,24.76
2022-08-26T08:37:16.953Z,24.87
2022-08-26T08:39:44.612Z,24.99
2022-08-26T08:42:35.081Z,25.10
2022-08-26T08:45:06.160Z,25.14
2022-08-26T08:47:37.893Z,25.15
2022-08-26T08:50:17.057Z,25.26
2022-08-26T08:52:50.516Z,25.32
2022-08-26T08:55:18.721Z,25.27
2022-08-26T08:58:02.109Z,25.37
2022-08-26T09:00:39.930Z,25.49
2022-08-26T09:03:20.082Z,25.65
2022-08-26T09:05:53.302Z,25.70
2022-08-26T09:08:27.418Z,25.67
2022-08-26T09:11:00.438Z,25.70
2022-08-26T09:13:29.038Z,25.71
2022-08-26T09:16:08.250Z,25.68
2022-08-26T09:18:54.586Z,25.57
2022-08-26T09:21:25.366Z,25.65
2022-08-26T09:23:55.565Z,25.71
2022-08-26T09:26:29.312Z,25.75
2022-08-26T09:29:00.892Z,25.81
2022-08-26T09:31:30.632Z,25.92
2022-08-26T09:34:17.481Z,25.97
2022-08-26T09:36:48.787Z,26.01
2022-08-26T09:39:29.067Z,26.01
2022-08-26T09:42:09.470Z,25.98
2022-08-26T09:44:55.891Z,25.99
2022-08-26T09:47:28.511Z,26.09
2022-08-26T09:50:04.232Z,26.14
2022-08-26T09:52:40.379Z,26.19
2022-08-26T09:55:14.413Z,26.13
2022-08-26T09:57:49.452Z,26.15
2022-08-26T10:00:32.360Z,26.26
2022-08-26T10:03:03.738Z,26.27
2022-08-26T10:05:38.482Z,26.29
2022-08-26T10:08:29.437Z,26.28
2022-08-26T10:10:58.730Z,26.27
2022-08-26T10:13:33.243Z,26.36
2022-08-26T10:16:10.836Z,26.38
2022-08-26T10:18:43.463Z,26.47
2022-08-26T10:21:15.289Z,26.50
2022-08-26T10:23:49.638Z,26.51
2022-08-26T10:26:23.907Z,26.58
2022-08-26T10:28:55.659Z,26.67
2022-08-26T10:31:29.182Z,26.68
2022-08-26T10:34:00.391Z,26.72
2022-08-26T10:37:14.304Z,26.81
2022-08-26T10:39:46.052Z,26.91
2022-08-26T10:42:20.802Z,26.94
2022-08-26T10:44:51.074Z,26.92
2022-08-26T10:47:25.522Z,26.97
2022-08-26T10:49:57.606Z,27.03
2022-08-26T10:52:39.842Z,27.06
2022-08-26T10:55:17.649Z,27.10
2022-08-26T10:57:55.907Z,27.16
2022-08-26T11:00:48.451Z,27.19
2022-08-26T11:03:31.401Z,27.22
2022-08-26T11:06:33.047Z,27.27
2022-08-26T11:09:06.632Z,27.36
2022-08-26T11:11:46.753Z,27.41
2022-08-26T11:14:53.748Z,27.47
2022-08-26T11:17:56.279Z,27.50
2022-08-26T11:20:35.299Z,27.56
2022-08-26T11:23:36.154Z,27.62
2022-08-26T11:26:37.710Z,27.67
2022-08-26T11:30:00.748Z,27.76
2022-08-26T11:32:48.750Z,27.84
2022-08-26T11:35:48.030Z,27.96
2022-08-26T11:38:20.978Z,28.07
2022-08-26T11:40:58.245Z,28.14
2022-08-26T11:43:29.843Z,28.14
2022-08-26T11:46:04.268Z,28.15
2022-08-26T11:48:35.627Z,28.23
2022-08-26T11:51:05.925Z,28.27
2022-08-26T11:53:36.954Z,28.39
2022-08-26T11:56:09.845Z,28.47
2022-08-26T11:58:44.401Z,28.51
2022-08-26T12:01:26.643Z,28.62
2022-08-26T12:03:58.447Z,28.72
2022-08-26T12:06:35.463Z,28.73
2022-08-26T12:09:11.693Z,28.85
2022-08-26T12:11:40.303Z,28.97
2022-08-26T12:14:19.262Z,29.09
2022-08-26T12:16:49.443Z,29.28
2022-08-26T12:19:26.331Z,29.46
2022-08-26T12:21:59.556Z,29.51
2022-08-26T12:24:27.358Z,29.63
2022-08-26T12:27:12.012Z,29.71
2022-08-26T12:29:40.387Z,29.74
2022-08-26T12:32:14.573Z,29.76
2022-08-26T12:34:43.294Z,29.69
2022-08-26T12:37:14.084Z,29.74
2022-08-26T12:39:44.519Z,29.89
2022-08-26T12:42:41.220Z,30.05
2022-08-26T12:45:09.867Z,30.19
2022-08-26T12:47:42.555Z,30.29
2022-08-26T12:50:17.394Z,30.39
2022-08-26T12:52:55.104Z,30.64
2022-08-26T12:55:26.106Z,30.70
2022-08-26T12:58:26.220Z,30.72
2022-08-26T13:00:56.011Z,30.78
2022-08-26T13:03:43.737Z,30.78
2022-08-26T13:06:18.306Z,30.58
2022-08-26T13:08:48.570Z,30.36
2022-08-26T13:11:20.904Z,30.44
2022-08-26T13:13:51.557Z,30.64
2022-08-26T13:16:19.431Z,30.73
2022-08-26T13:18:49.726Z,30.66
2022-08-26T13:21:20.748Z,30.33
2022-08-26T13:23:49.462Z,30.13
2022-08-26T13:26:17.960Z,29.92
2022-08-26T13:28:45.630Z,29.67
2022-08-26T13:31:30.540Z,29.48
2022-08-26T13:34:00.657Z,29.36
2022-08-26T13:36:28.804Z,29.29
2022-08-26T13:38:56.420Z,29.20
2022-08-26T13:41:29.053Z,29.03
2022-08-26T13:43:57.032Z,28.96
2022-08-26T13:46:26.789Z,28.86
2022-08-26T13:48:55.034Z,28.80
2022-08-26T13:51:24.150Z,28.74
2022-08-26T13:53:52.253Z,28.69
2022-08-26T13:56:20.954Z,28.69
2022-08-26T13:58:48.638Z,28.68
2022-08-26T14:01:18.045Z,28.74
2022-08-26T14:03:46.104Z,28.79
2022-08-26T14:06:13.975Z,28.95
2022-08-26T14:08:43.979Z,29.13
2022-08-26T14:11:12.096Z,29.15
2022-08-26T14:13:39.741Z,29.08
2022-08-26T14:16:11.262Z,29.27
2022-08-26T14:18:45.277Z,29.35
2022-08-26T14:21:16.309Z,29.33
2022-08-26T14:23:45.319Z,29.32
2022-08-26T14:26:27.925Z,29.43
2022-08-26T14:28:57.717Z,29.50
2022-08-26T14:31:26.802Z,29.56
2022-08-26T14:33:55.624Z,29.64
2022-08-26T14:36:28.979Z,29.67
2022-08-26T14:39:00.789Z,29.62
2022-08-26T14:41:33.007Z,29.55
2022-08-26T14:44:04.917Z,29.65
2022-08-26T14:46:35.945Z,29.68
2022-08-26T14:49:07.263Z,29.78
2022-08-26T14:51:38.049Z,29.84
2022-08-26T14:54:13.316Z,29.78
2022-08-26T14:56:45.820Z,29.73
2022-08-26T14:59:14.700Z,29.69
2022-08-26T15:01:43.714Z,29.70
2022-08-26T15:04:11.731Z,29.61
2022-08-26T15:06:39.815Z,29.50
2022-08-26T15:09:09.349Z,29.49
2022-08-26T15:11:37.718Z,29.37
2022-08-26T15:14:06.250Z,29.35
2022-08-26T15:16:35.419Z,29.27
2022-08-26T15:19:05.242Z,29.19
2022-08-26T15:21:34.051Z,29.18
2022-08-26T15:24:04.565Z,29.17
2022-08-26T15:26:34.840Z,29.13
2022-08-26T15:29:05.071Z,29.09
2022-08-26T15:31:34.233Z,29.04
2022-08-26T15:34:04.707Z,29.02
2022-08-26T15:36:32.979Z,29.01
2022-08-26T15:39:01.657Z,28.98
2022-08-26T15:41:29.908Z,29.04
2022-08-26T15:44:05.317Z,29.00
2022-08-26T15:46:33.764Z,28.99
2022-08-26T15:49:05.255Z,28.95
2022-08-26T15:51:35.356Z,28.87
2022-08-26T15:54:13.050Z,28.89
2022-08-26T15:56:40.665Z,28.84
2022-08-26T15:59:11.428Z,28.81
2022-08-26T16:01:39.216Z,28.79
2022-08-26T16:04:07.768Z,28.76
2022-08-26T16:06:37.543Z,28.72
2022-08-26T16:09:05.887Z,28.67
2022-08-26T16:11:34.241Z,28.52
2022-08-26T16:14:03.367Z,28.41
2022-08-26T16:16:32.984Z,28.33
2022-08-26T16:19:07.291Z,28.25
2022-08-26T16:21:35.998Z,28.13
2022-08-26T16:24:05.011Z,28.07
2022-08-26T16:26:34.728Z,27.94
2022-08-26T16:29:04.489Z,27.80
2022-08-26T16:31:33.542Z,27.64
2022-08-26T16:34:02.598Z,27.43
2022-08-26T16:36:30.480Z,27.40
2022-08-26T16:38:58.107Z,27.21
2022-08-26T16:41:28.589Z,27.02
2022-08-26T16:43:56.849Z,27.01
2022-08-26T16:46:26.160Z,27.06
2022-08-26T16:48:56.913Z,27.08
2022-08-26T16:51:27.925Z,26.92
2022-08-26T16:53:57.205Z,26.65
2022-08-26T16:56:33.990Z,26.56
2022-08-26T16:59:02.774Z,26.38
2022-08-26T17:01:30.652Z,26.14
2022-08-26T17:04:00.160Z,26.00
2022-08-26T17:06:28.851Z,26.06
2022-08-26T17:08:56.872Z,26.07
2022-08-26T17:11:24.496Z,26.16
2022-08-26T17:13:52.497Z,26.09
2022-08-26T17:16:23.299Z,26.20
2022-08-26T17:18:54.983Z,26.20
2022-08-26T17:21:24.615Z,26.14
2022-08-26T17:23:52.262Z,26.25
2022-08-26T17:26:20.055Z,26.31
2022-08-26T17:28:47.703Z,26.38
2022-08-26T17:31:15.510Z,26.43
2022-08-26T17:33:44.429Z,26.41
2022-08-26T17:36:15.809Z,26.35
2022-08-26T17:38:45.146Z,26.35
2022-08-26T17:41:16.301Z,26.37
2022-08-26T17:43:44.767Z,26.40
2022-08-26T17:46:13.767Z,26.32
2022-08-26T17:48:42.189Z,26.19
2022-08-26T17:51:11.028Z,26.07
2022-08-26T17:53:39.103Z,25.98
2022-08-26T17:56:09.380Z,25.77
2022-08-26T17:58:37.891Z,25.52
2022-08-26T18:01:06.449Z,25.37
2022-08-26T18:03:35.023Z,25.40
2022-08-26T18:06:03.990Z,25.32
2022-08-26T18:08:31.739Z,25.22
2022-08-26T18:10:59.688Z,25.13
2022-08-26T18:13:28.568Z,25.10
2022-08-26T18:15:56.250Z,25.12
2022-08-26T18:18:23.944Z,25.13
2022-08-26T18:20:52.620Z,25.14
2022-08-26T18:23:29.481Z,25.09
2022-08-26T18:25:59.323Z,25.07
2022-08-26T18:28:28.264Z,25.05
2022-08-26T18:30:57.041Z,25.05
2022-08-26T18:33:25.457Z,24.99
2022-08-26T18:35:53.642Z,24.94
2022-08-26T18:38:21.265Z,24.94
2022-08-26T18:40:50.142Z,24.90
2022-08-26T18:43:17.818Z,24.94
2022-08-26T18:45:46.744Z,24.97
2022-08-26T18:48:14.659Z,24.91
2022-08-26T18:50:46.997Z,24.84
2022-08-26T18:53:15.564Z,24.81
2022-08-26T18:55:43.243Z,24.81
2022-08-26T18:58:11.586Z,24.75
2022-08-26T19:00:39.561Z,24.59
2022-08-26T19:03:18.441Z,24.56
2022-08-26T19:05:47.045Z,24.55
2022-08-26T19:08:14.740Z,24.57
2022-08-26T19:10:42.565Z,24.59
2022-08-26T19:13:10.687Z,24.66
2022-08-26T19:15:39.082Z,24.70
2022-08-26T19:18:09.716Z,24.60
2022-08-26T19:20:43.469Z,24.53
2022-08-26T19:23:31.084Z,24.45
2022-08-26T19:26:03.892Z,24.35
2022-08-26T19:28:32.406Z,24.44
2022-08-26T19:31:01.138Z,24.52
2022-08-26T19:33:30.446Z,24.54
2022-08-26T19:35:58.661Z,24.42
2022-08-26T19:38:26.298Z,24.39
2022-08-26T19:40:55.612Z,24.33
2022-08-26T19:43:23.206Z,24.37
2022-08-26T19:45:51.051Z,24.42
2022-08-26T19:48:18.790Z,24.40
2022-08-26T19:50:47.821Z,24.29
2022-08-26T19:53:15.496Z,24.21
2022-08-26T19:55:43.090Z,24.09
2022-08-26T19:58:11.618Z,24.02
2022-08-26T20:00:42.052Z,23.95
2022-08-26T20:03:10.629Z,23.92
2022-08-26T20:05:42.468Z,23.94
2022-08-26T20:08:22.061Z,23.95
2022-08-26T20:10:51.049Z,23.89
2022-08-26T20:13:21.243Z,23.90
2022-08-26T20:15:49.112Z,23.88
2022-08-26T20:18:34.521Z,23.91
2022-08-26T20:21:19.824Z,23.95
2022-08-26T20:23:48.788Z,24.03
2022-08-26T20:26:16.983Z,24.09
2022-08-26T20:28:44.726Z,24.06
2022-08-26T20:31:12.678Z,24.07
2022-08-26T20:33:46.366Z,24.12
2022-08-26T20:36:16.656Z,24.07
2022-08-26T20:38:45.960Z,24.06
2022-08-26T20:41:15.530Z,24.07
2022-08-26T20:43:46.502Z,24.07
2022-08-26T20:46:18.183Z,24.08
2022-08-26T20:48:47.251Z,24.04
2022-08-26T20:51:15.172Z,23.87
2022-08-26T20:53:44.112Z,23.82
2022-08-26T20:56:14.132Z,23.81
2022-08-26T20:58:43.909Z,23.83
2022-08-26T21:01:19.058Z,23.82
2022-08-26T21:03:47.176Z,23.71
2022-08-26T21:06:16.517Z,23.57
2022-08-26T21:08:44.889Z,23.44
2022-08-26T21:11:13.183Z,23.46
2022-08-26T21:14:01.512Z,23.42
2022-08-26T21:16:30.385Z,23.37
2022-08-26T21:19:00.388Z,23.38
2022-08-26T21:21:28.419Z,23.33
2022-08-26T21:23:57.036Z,23.35
2022-08-26T21:26:25.297Z,23.30
2022-08-26T21:28:53.403Z,23.31
2022-08-26T21:31:23.240Z,23.21
2022-08-26T21:33:52.957Z,23.18
2022-08-26T21:36:21.066Z,23.14
2022-08-26T21:38:48.717Z,23.12
2022-08-26T21:41:19.352Z,22.93
2022-08-26T21:43:47.935Z,22.88
2022-08-26T21:46:19.432Z,22.92
2022-08-26T21:48:54.503Z,22.93
2022-08-26T21:51:24.178Z,22.96
2022-08-26T21:53:53.130Z,23.00
2022-08-26T21:56:22.060Z,23.05
2022-08-26T21:58:50.005Z,23.07
2022-08-26T22:01:23.029Z,22.93
2022-08-26T22:03:53.266Z,22.90
2022-08-26T22:06:23.881Z,22.92
2022-08-26T22:08:52.961Z,22.95
2022-08-26T22:11:21.308Z,23.02
2022-08-26T22:13:49.434Z,22.92
2022-08-26T22:16:18.596Z,22.87
2022-08-26T22:18:47.025Z,22.88
2022-08-26T22:21:19.441Z,22.86
2022-08-26T22:23:48.618Z,22.88
2022-08-26T22:26:25.216Z,22.87
2022-08-26T22:28:58.753Z,22.87
2022-08-26T22:31:36.945Z,22.84
2022-08-26T22:34:07.783Z,22.81
2022-08-26T22:36:43.148Z,22.79
2022-08-26T22:39:12.589Z,22.77
2022-08-26T22:41:40.352Z,22.74
2022-08-26T22:44:08.284Z,22.73
2022-08-26T22:46:38.504Z,22.72
2022-08-26T22:49:06.365Z,22.69
2022-08-26T22:51:34.434Z,22.57
2022-08-26T22:54:03.348Z,22.54
2022-08-26T22:56:30.988Z,22.51
2022-08-26T22:58:58.634Z,22.49
2022-08-26T23:01:26.498Z,22.47
2022-08-26T23:03:54.208Z,22.46
2022-08-26T23:06:21.871Z,22.49
2022-08-26T23:08:49.460Z,22.46
2022-08-26T23:11:18.994Z,22.41
2022-08-26T23:13:46.594Z,22.48
2022-08-26T23:16:14.782Z,22.45
2022-08-26T23:18:42.766Z,22.48
2022-08-26T23:21:11.581Z,22.43
2022-08-26T23:23:39.213Z,22.45
2022-08-26T23:26:08.512Z,22.38
2022-08-26T23:28:38.465Z,22.37
2022-08-26T23:31:06.669Z,22.34
2022-08-26T23:33:48.393Z,22.31
2022-08-26T23:36:18.200Z,22.28
2022-08-26T23:38:52.369Z,22.32
2022-08-26T23:41:21.097Z,22.26
2022-08-26T23:43:50.249Z,22.16
2022-08-26T23:46:18.010Z,22.12
2022-08-26T23:48:47.098Z,22.14
2022-08-26T23:51:32.395Z,22.16
2022-08-26T23:54:00.000Z,22.12
2022-08-26T23:56:30.436Z,22.11
2022-08-26T23:58:59.568Z,22.10
